createdAt,value
2019-02-24T00:01:23.947Z,16.57
2019-02-24T00:04:05.062Z,16.30
2019-02-24T00:06:45.866Z,17.20
2019-02-24T00:09:26.550Z,16.13
2019-02-24T00:12:07.090Z,16.57
2019-02-24T00:14:48.072Z,15.93
2019-02-24T00:17:28.827Z,15.17
2019-02-24T00:20:09.695Z,15.63
2019-02-24T00:22:50.442Z,15.23
2019-02-24T00:25:31.044Z,15.37
2019-02-24T00:28:11.530Z,15.93
2019-02-24T00:30:51.997Z,13.83
2019-02-24T00:33:20.568Z,16.07
2019-02-24T00:36:08.443Z,16.60
2019-02-24T00:38:56.346Z,14.27
2019-02-24T00:41:44.230Z,14.90
2019-02-24T00:44:32.148Z,17.17
2019-02-24T00:47:20.046Z,17.07
2019-02-24T00:50:08.858Z,16.20
2019-02-24T00:55:50.605Z,14.77
2019-02-24T00:58:38.510Z,16.53
2019-02-24T01:01:26.454Z,13.60
2019-02-24T01:04:14.354Z,13.37
2019-02-24T01:07:02.263Z,16.63
2019-02-24T01:09:50.142Z,15.63
2019-02-24T01:12:38.041Z,15.10
2019-02-24T01:15:25.932Z,16.80
2019-02-24T01:18:13.834Z,12.47
2019-02-24T01:21:01.718Z,14.33
2019-02-24T01:23:49.630Z,15.77
2019-02-24T01:26:37.502Z,15.07
2019-02-24T01:29:25.406Z,13.10
2019-02-24T01:32:13.316Z,15.50
2019-02-24T01:35:01.192Z,15.43
2019-02-24T01:37:49.090Z,16.37
2019-02-24T01:40:36.978Z,15.40
2019-02-24T01:43:24.882Z,18.17
2019-02-24T01:46:12.830Z,14.73
2019-02-24T01:49:00.738Z,14.63
2019-02-24T01:54:37.415Z,14.57
2019-02-24T01:57:25.296Z,15.87
2019-02-24T02:00:13.263Z,12.60
2019-02-24T02:03:01.174Z,14.93
2019-02-24T02:05:49.046Z,14.17
2019-02-24T02:08:36.952Z,14.70
2019-02-24T02:11:24.833Z,15.57
2019-02-24T02:14:12.734Z,14.97
2019-02-24T02:17:00.621Z,13.97
2019-02-24T02:19:48.518Z,13.80
2019-02-24T02:22:36.406Z,14.40
2019-02-24T02:25:24.309Z,13.40
2019-02-24T02:28:05.470Z,14.30
2019-02-24T02:30:46.317Z,11.97
2019-02-24T02:33:27.344Z,12.93
2019-02-24T02:36:08.230Z,13.83
2019-02-24T02:38:48.918Z,17.43
2019-02-24T02:41:30.073Z,13.20
2019-02-24T02:44:14.168Z,16.10
2019-02-24T02:46:54.788Z,14.10
2019-02-24T02:49:35.398Z,14.93
2019-02-24T02:52:16.018Z,15.57
2019-02-24T02:54:56.583Z,14.53
2019-02-24T02:57:36.906Z,15.93
2019-02-24T03:00:17.482Z,14.50
2019-02-24T03:02:58.103Z,16.63
2019-02-24T03:05:40.540Z,14.77
2019-02-24T03:08:23.157Z,15.20
2019-02-24T03:11:04.241Z,13.50
2019-02-24T03:13:44.897Z,16.33
2019-02-24T03:16:27.010Z,16.90
2019-02-24T03:19:07.978Z,14.83
2019-02-24T03:21:48.332Z,16.13
2019-02-24T03:24:28.994Z,14.53
2019-02-24T03:27:09.806Z,12.93
2019-02-24T03:29:50.677Z,13.67
2019-02-24T03:32:31.433Z,15.67
2019-02-24T03:35:12.177Z,14.17
2019-02-24T03:37:52.910Z,13.07
2019-02-24T03:40:33.777Z,14.27
2019-02-24T03:43:14.295Z,16.97
2019-02-24T03:45:54.703Z,15.23
2019-02-24T03:48:35.397Z,16.00
2019-02-24T03:51:15.994Z,13.60
2019-02-24T03:53:56.526Z,16.27
2019-02-24T03:56:37.205Z,14.57
2019-02-24T03:59:17.924Z,15.87
2019-02-24T04:01:58.284Z,15.47
2019-02-24T04:04:39.172Z,13.67
2019-02-24T04:07:19.754Z,14.50
2019-02-24T04:10:00.214Z,14.80
2019-02-24T04:12:40.893Z,14.80
2019-02-24T04:15:21.794Z,14.90
2019-02-24T04:18:02.126Z,14.10
2019-02-24T04:20:42.822Z,13.53
2019-02-24T04:23:23.301Z,16.10
2019-02-24T04:26:04.295Z,15.33
2019-02-24T04:28:45.113Z,14.03
2019-02-24T04:31:25.478Z,15.17
2019-02-24T04:34:05.966Z,15.73
2019-02-24T04:36:46.690Z,15.03
2019-02-24T04:39:27.140Z,14.13
2019-02-24T04:42:07.883Z,14.30
2019-02-24T04:44:48.825Z,12.40
2019-02-24T04:47:29.526Z,15.97
2019-02-24T04:50:10.110Z,14.07
2019-02-24T04:52:50.980Z,13.80
2019-02-24T04:55:31.548Z,14.30
2019-02-24T04:58:12.718Z,15.03
2019-02-24T05:00:53.343Z,15.37
2019-02-24T05:03:34.408Z,13.53
2019-02-24T05:06:15.258Z,14.50
2019-02-24T05:08:55.991Z,12.53
2019-02-24T05:11:36.398Z,13.40
2019-02-24T05:14:17.625Z,14.50
2019-02-24T05:16:58.121Z,14.83
2019-02-24T05:19:38.817Z,15.37
2019-02-24T05:22:19.690Z,13.43
2019-02-24T05:25:00.366Z,13.60
2019-02-24T05:27:40.703Z,13.27
2019-02-24T05:30:21.545Z,14.67
2019-02-24T05:33:02.527Z,14.60
2019-02-24T05:35:43.042Z,18.03
2019-02-24T05:38:23.899Z,13.63
2019-02-24T05:41:04.359Z,13.97
2019-02-24T05:43:45.031Z,15.80
2019-02-24T05:46:25.883Z,13.50
2019-02-24T05:49:06.745Z,13.70
2019-02-24T05:51:47.152Z,14.47
2019-02-24T05:54:29.765Z,13.03
2019-02-24T05:57:10.543Z,13.90
2019-02-24T05:59:55.296Z,13.63
2019-02-24T06:02:33.682Z,13.27
2019-02-24T06:05:14.133Z,13.77
2019-02-24T06:07:55.009Z,13.50
2019-02-24T06:10:35.763Z,15.27
2019-02-24T06:13:04.330Z,13.43
2019-02-24T06:15:52.221Z,12.03
2019-02-24T06:18:40.127Z,13.47
2019-02-24T06:21:28.072Z,13.57
2019-02-24T06:24:15.914Z,13.77
2019-02-24T06:26:56.854Z,12.67
2019-02-24T06:29:37.802Z,12.50
2019-02-24T06:32:18.607Z,12.77
2019-02-24T06:34:59.698Z,15.10
2019-02-24T06:37:40.095Z,14.40
2019-02-24T06:40:20.568Z,13.83
2019-02-24T06:43:01.129Z,13.03
2019-02-24T06:45:42.045Z,13.47
2019-02-24T06:48:22.844Z,12.57
2019-02-24T06:51:05.432Z,12.37
2019-02-24T06:53:46.553Z,16.07
2019-02-24T06:56:27.097Z,14.00
2019-02-24T06:59:07.745Z,12.67
2019-02-24T07:01:48.160Z,15.33
2019-02-24T07:04:28.847Z,13.67
2019-02-24T07:07:09.529Z,16.10
2019-02-24T07:09:50.017Z,14.13
2019-02-24T07:12:30.697Z,14.87
2019-02-24T07:14:59.257Z,16.33
2019-02-24T07:17:47.057Z,14.73
2019-02-24T07:20:34.889Z,14.00
2019-02-24T07:23:22.789Z,15.30
2019-02-24T07:26:10.669Z,17.27
2019-02-24T07:28:51.617Z,15.83
2019-02-24T07:31:32.022Z,16.60
2019-02-24T07:34:13.014Z,17.80
2019-02-24T07:36:53.734Z,14.10
2019-02-24T07:39:34.534Z,14.37
2019-02-24T07:42:15.226Z,14.63
2019-02-24T07:44:55.618Z,17.17
2019-02-24T07:47:36.387Z,17.43
2019-02-24T07:50:17.145Z,13.87
2019-02-24T07:52:57.650Z,14.37
2019-02-24T07:55:38.370Z,15.00
2019-02-24T07:58:18.901Z,16.80
2019-02-24T08:00:59.534Z,14.23
2019-02-24T08:03:39.883Z,13.60
2019-02-24T08:06:20.546Z,17.03
2019-02-24T08:09:01.210Z,15.57
2019-02-24T08:11:41.630Z,15.27
2019-02-24T08:14:22.393Z,14.30
2019-02-24T08:17:02.922Z,15.87
2019-02-24T08:19:43.974Z,13.70
2019-02-24T08:22:24.560Z,14.63
2019-02-24T08:25:05.243Z,11.77
2019-02-24T08:27:46.194Z,13.53
2019-02-24T08:30:27.108Z,12.77
2019-02-24T08:33:08.031Z,13.63
2019-02-24T08:35:48.686Z,13.03
2019-02-24T08:38:29.349Z,14.70
2019-02-24T08:41:10.023Z,12.43
2019-02-24T08:43:50.857Z,12.60
2019-02-24T08:46:31.843Z,13.40
2019-02-24T08:49:12.787Z,13.20
2019-02-24T08:51:53.418Z,15.13
2019-02-24T08:54:33.931Z,14.27
2019-02-24T08:57:14.371Z,16.33
2019-02-24T08:59:54.997Z,14.40
2019-02-24T09:02:35.436Z,15.07
2019-02-24T09:05:15.982Z,13.30
2019-02-24T09:07:56.583Z,14.10
2019-02-24T09:10:37.382Z,13.90
2019-02-24T09:13:18.063Z,12.97
2019-02-24T09:15:58.649Z,13.77
2019-02-24T09:18:39.297Z,11.17
2019-02-24T09:21:20.050Z,14.13
2019-02-24T09:24:00.789Z,13.10
2019-02-24T09:26:41.550Z,12.77
2019-02-24T09:29:22.565Z,12.77
2019-02-24T09:32:03.653Z,11.27
2019-02-24T09:34:44.258Z,10.93
2019-02-24T09:37:24.837Z,12.60
2019-02-24T09:40:05.731Z,11.57
2019-02-24T09:42:46.524Z,12.23
2019-02-24T09:45:27.702Z,10.50
2019-02-24T09:48:08.463Z,11.87
2019-02-24T09:50:49.247Z,10.67
2019-02-24T09:53:30.127Z,11.43
2019-02-24T09:56:10.969Z,11.90
2019-02-24T09:58:51.795Z,10.20
2019-02-24T10:01:32.696Z,12.23
2019-02-24T10:04:13.693Z,11.47
2019-02-24T10:06:54.677Z,12.30
2019-02-24T10:09:35.292Z,11.33
2019-02-24T10:12:15.761Z,11.07
2019-02-24T10:14:56.714Z,9.90
2019-02-24T10:17:37.446Z,11.50
2019-02-24T10:20:18.266Z,12.17
2019-02-24T10:22:58.911Z,11.17
2019-02-24T10:25:39.479Z,11.17
2019-02-24T10:28:20.468Z,12.30
2019-02-24T10:31:01.667Z,10.27
2019-02-24T10:33:42.840Z,11.93
2019-02-24T10:36:23.657Z,9.70
2019-02-24T10:39:04.214Z,10.93
2019-02-24T10:41:44.615Z,12.10
2019-02-24T10:44:25.026Z,9.83
2019-02-24T10:47:05.726Z,11.07
2019-02-24T10:49:46.595Z,9.70
2019-02-24T10:52:27.247Z,10.73
2019-02-24T10:55:08.094Z,9.13
2019-02-24T10:57:48.786Z,11.20
2019-02-24T11:00:29.217Z,8.53
2019-02-24T11:03:09.668Z,7.33
2019-02-24T11:05:50.320Z,7.47
2019-02-24T11:08:31.422Z,8.97
2019-02-24T11:11:11.965Z,9.20
2019-02-24T11:13:52.369Z,9.57
2019-02-24T11:16:32.915Z,10.60
2019-02-24T11:19:13.503Z,10.00
2019-02-24T11:21:54.178Z,11.13
2019-02-24T11:24:34.831Z,9.40
2019-02-24T11:27:15.700Z,10.47
2019-02-24T11:29:56.618Z,10.23
2019-02-24T11:32:37.330Z,10.27
2019-02-24T11:35:17.735Z,10.53
2019-02-24T11:37:58.573Z,10.27
2019-02-24T11:40:39.144Z,10.50
2019-02-24T11:43:19.706Z,10.00
2019-02-24T11:46:00.326Z,8.07
2019-02-24T11:48:41.066Z,8.93
2019-02-24T11:51:22.054Z,9.27
2019-02-24T11:54:03.155Z,9.37
2019-02-24T12:00:02.956Z,11.87
2019-02-24T12:02:43.608Z,9.47
2019-02-24T12:05:24.370Z,8.60
2019-02-24T12:08:05.401Z,9.60
2019-02-24T12:10:46.169Z,9.03
2019-02-24T12:13:27.106Z,9.23
2019-02-24T12:16:08.050Z,9.37
2019-02-24T12:18:48.771Z,9.07
2019-02-24T12:21:29.233Z,12.97
2019-02-24T12:24:09.897Z,10.20
2019-02-24T12:26:50.604Z,10.40
2019-02-24T12:29:30.999Z,11.30
2019-02-24T12:32:11.817Z,9.53
2019-02-24T12:34:52.486Z,11.10
2019-02-24T12:37:33.006Z,8.77
2019-02-24T12:40:13.836Z,8.23
2019-02-24T12:42:54.653Z,9.73
2019-02-24T12:45:35.428Z,9.70
2019-02-24T12:48:15.966Z,9.67
2019-02-24T12:50:56.883Z,10.43
2019-02-24T12:53:37.625Z,9.40
2019-02-24T12:56:18.429Z,10.40
2019-02-24T12:58:46.999Z,9.97
2019-02-24T13:01:34.890Z,10.47
2019-02-24T13:04:22.790Z,11.40
2019-02-24T13:07:10.670Z,8.70
2019-02-24T13:09:58.570Z,9.30
2019-02-24T13:12:46.445Z,8.37
2019-02-24T13:15:34.362Z,11.50
2019-02-24T13:18:22.246Z,11.07
2019-02-24T13:21:10.149Z,9.97
2019-02-24T13:23:58.212Z,8.80
2019-02-24T13:26:45.832Z,9.30
2019-02-24T13:29:26.230Z,12.30
2019-02-24T13:35:26.434Z,8.37
2019-02-24T13:38:07.191Z,9.00
2019-02-24T13:40:48.177Z,9.57
2019-02-24T13:43:29.166Z,9.70
2019-02-24T13:45:58.246Z,9.23
2019-02-24T13:48:46.608Z,7.60
2019-02-24T13:54:43.951Z,8.70
2019-02-24T13:57:31.889Z,10.43
2019-02-24T14:00:20.371Z,10.60
2019-02-24T14:03:08.408Z,6.90
2019-02-24T14:05:56.317Z,9.07
2019-02-24T14:08:44.196Z,7.47
2019-02-24T14:11:32.106Z,6.63
2019-02-24T14:14:20.039Z,7.40
2019-02-24T14:17:07.889Z,7.73
2019-02-24T14:19:55.883Z,6.70
2019-02-24T14:22:43.689Z,7.40
2019-02-24T14:25:31.804Z,7.57
2019-02-24T14:28:12.879Z,7.03
2019-02-24T14:30:53.534Z,7.63
2019-02-24T14:33:34.958Z,9.03
2019-02-24T14:36:16.009Z,7.50
2019-02-24T14:38:56.839Z,7.23
2019-02-24T14:41:37.569Z,7.93
2019-02-24T14:44:18.450Z,7.07
2019-02-24T14:46:59.379Z,8.67
2019-02-24T14:49:40.665Z,8.57
2019-02-24T14:52:21.175Z,7.40
2019-02-24T14:55:02.251Z,7.97
2019-02-24T14:57:42.954Z,8.63
2019-02-24T15:03:32.358Z,7.70
2019-02-24T15:06:13.137Z,7.73
2019-02-24T15:08:53.942Z,6.60
2019-02-24T15:11:34.760Z,8.97
2019-02-24T15:14:15.251Z,7.87
2019-02-24T15:16:55.750Z,7.77
2019-02-24T15:19:36.126Z,8.33
2019-02-24T15:22:16.672Z,10.53
2019-02-24T15:24:57.347Z,9.53
2019-02-24T15:27:37.999Z,7.73
2019-02-24T15:30:18.487Z,8.27
2019-02-24T15:32:59.457Z,8.27
2019-02-24T15:35:40.106Z,7.97
2019-02-24T15:38:21.066Z,8.37
2019-02-24T15:41:01.905Z,7.57
2019-02-24T15:43:42.644Z,7.67
2019-02-24T15:46:23.469Z,9.00
2019-02-24T15:49:04.044Z,8.07
2019-02-24T15:51:45.014Z,9.20
2019-02-24T15:54:25.992Z,7.93
2019-02-24T15:57:10.066Z,7.67
2019-02-24T15:59:51.079Z,8.67
2019-02-24T16:02:31.455Z,8.07
2019-02-24T16:05:12.268Z,8.80
2019-02-24T16:07:53.067Z,8.57
2019-02-24T16:10:33.863Z,7.67
2019-02-24T16:13:17.208Z,7.93
2019-02-24T16:15:57.522Z,8.17
2019-02-24T16:18:38.326Z,8.20
2019-02-24T16:21:18.754Z,8.50
2019-02-24T16:23:59.798Z,8.47
2019-02-24T16:26:40.428Z,9.83
2019-02-24T16:29:21.082Z,7.80
2019-02-24T16:32:02.082Z,6.97
2019-02-24T16:34:42.982Z,8.47
2019-02-24T16:37:23.847Z,6.70
2019-02-24T16:40:04.434Z,8.80
2019-02-24T16:42:45.070Z,8.13
2019-02-24T16:45:25.822Z,7.60
2019-02-24T16:48:06.826Z,7.73
2019-02-24T16:50:47.270Z,8.67
2019-02-24T16:53:28.335Z,9.37
2019-02-24T16:56:09.210Z,8.17
2019-02-24T16:58:49.737Z,9.00
2019-02-24T17:01:18.290Z,20.00
2019-02-24T17:04:06.227Z,43.97
2019-02-24T17:06:54.113Z,29.87
2019-02-24T17:09:42.021Z,15.35
2019-02-24T17:12:29.931Z,17.10
2019-02-24T17:15:17.813Z,16.07
2019-02-24T17:17:46.452Z,13.33
2019-02-24T17:20:34.330Z,10.83
2019-02-24T17:23:22.254Z,10.43
2019-02-24T17:26:10.138Z,10.33
2019-02-24T17:28:51.155Z,12.20
2019-02-24T17:31:31.813Z,11.30
2019-02-24T17:34:12.683Z,11.87
2019-02-24T17:36:53.502Z,10.97
2019-02-24T17:39:34.566Z,9.90
2019-02-24T17:42:15.394Z,8.67
2019-02-24T17:44:56.492Z,7.67
2019-02-24T17:50:45.505Z,10.77
2019-02-24T17:53:26.004Z,11.53
2019-02-24T17:56:06.874Z,10.10
2019-02-24T17:58:47.616Z,10.03
2019-02-24T18:01:28.518Z,9.47
2019-02-24T18:04:09.017Z,9.23
2019-02-24T18:06:49.575Z,9.07
2019-02-24T18:09:30.142Z,11.60
2019-02-24T18:12:10.711Z,13.37
2019-02-24T18:14:51.330Z,10.60
2019-02-24T18:17:31.862Z,9.40
2019-02-24T18:20:12.314Z,11.57
2019-02-24T18:22:53.163Z,9.63
2019-02-24T18:25:33.534Z,9.70
2019-02-24T18:28:02.160Z,8.70
2019-02-24T18:30:50.102Z,9.20
2019-02-24T18:33:37.933Z,9.07
2019-02-24T18:36:25.878Z,9.63
2019-02-24T18:38:54.450Z,9.73
2019-02-24T18:41:42.327Z,12.53
2019-02-24T18:44:30.233Z,10.73
2019-02-24T18:47:18.161Z,12.80
2019-02-24T18:50:26.786Z,10.80
2019-02-24T18:53:14.130Z,10.73
2019-02-24T18:56:02.014Z,10.47
2019-02-24T18:58:49.914Z,9.30
2019-02-24T19:01:37.791Z,9.23
2019-02-24T19:04:25.694Z,10.43
2019-02-24T19:07:13.638Z,8.90
2019-02-24T19:10:01.546Z,9.50
2019-02-24T19:12:49.421Z,9.27
2019-02-24T19:15:37.313Z,10.30
2019-02-24T19:18:25.198Z,11.33
2019-02-24T19:21:13.104Z,9.27
2019-02-24T19:24:01.007Z,9.70
2019-02-24T19:26:48.877Z,12.33
2019-02-24T19:29:29.657Z,10.87
2019-02-24T19:32:10.250Z,8.73
2019-02-24T19:34:50.727Z,9.97
2019-02-24T19:37:31.549Z,10.37
2019-02-24T19:40:12.265Z,10.50
2019-02-24T19:42:53.203Z,9.97
2019-02-24T19:45:34.157Z,13.83
2019-02-24T19:48:15.008Z,8.23
2019-02-24T19:50:55.546Z,9.40
2019-02-24T19:53:36.094Z,8.83
2019-02-24T19:56:16.798Z,9.80
2019-02-24T19:58:57.274Z,11.47
2019-02-24T20:01:37.762Z,9.50
2019-02-24T20:04:18.712Z,10.53
2019-02-24T20:06:59.298Z,10.73
2019-02-24T20:09:40.286Z,10.97
2019-02-24T20:12:21.074Z,9.57
2019-02-24T20:15:01.984Z,10.73
2019-02-24T20:17:42.471Z,12.00
2019-02-24T20:20:23.290Z,10.73
2019-02-24T20:23:04.146Z,10.80
2019-02-24T20:25:44.758Z,10.73
2019-02-24T20:28:25.417Z,10.70
2019-02-24T20:31:06.247Z,11.40
2019-02-24T20:33:46.717Z,8.40
2019-02-24T20:36:27.254Z,9.63
2019-02-24T20:39:07.844Z,8.77
2019-02-24T20:41:48.514Z,7.73
2019-02-24T20:44:29.487Z,9.10
2019-02-24T20:47:10.362Z,8.87
2019-02-24T20:49:50.682Z,10.50
2019-02-24T20:52:31.214Z,9.13
2019-02-24T20:55:11.888Z,9.23
2019-02-24T20:57:52.387Z,8.93
2019-02-24T21:00:33.375Z,10.40
2019-02-24T21:03:13.945Z,11.90
2019-02-24T21:05:54.527Z,10.53
2019-02-24T21:08:35.271Z,11.93
2019-02-24T21:11:16.062Z,10.60
2019-02-24T21:13:57.135Z,10.37
2019-02-24T21:16:38.010Z,9.13
2019-02-24T21:19:18.515Z,11.63
2019-02-24T21:21:59.335Z,11.97
2019-02-24T21:24:40.098Z,15.27
2019-02-24T21:27:20.562Z,13.93
2019-02-24T21:30:01.439Z,12.83
2019-02-24T21:32:42.213Z,14.37
2019-02-24T21:35:22.624Z,12.57
2019-02-24T21:38:03.090Z,11.80
2019-02-24T21:40:43.815Z,13.77
2019-02-24T21:43:24.498Z,12.53
2019-02-24T21:46:05.047Z,10.87
2019-02-24T21:48:46.034Z,13.00
2019-02-24T21:51:26.558Z,12.37
2019-02-24T21:54:07.261Z,12.90
2019-02-24T21:56:47.853Z,12.80
2019-02-24T21:59:36.821Z,9.40
2019-02-24T22:02:11.542Z,11.50
2019-02-24T22:04:52.219Z,11.47
2019-02-24T22:07:33.102Z,10.57
2019-02-24T22:10:13.391Z,11.83
2019-02-24T22:12:54.469Z,13.87
2019-02-24T22:15:35.158Z,12.10
2019-02-24T22:18:16.062Z,10.77
2019-02-24T22:20:56.514Z,11.30
2019-02-24T22:23:37.178Z,11.30
2019-02-24T22:26:17.538Z,10.83
2019-02-24T22:28:58.242Z,10.20
2019-02-24T22:31:38.970Z,11.40
2019-02-24T22:34:19.586Z,9.03
2019-02-24T22:37:00.630Z,10.47
2019-02-24T22:43:00.590Z,11.73
2019-02-24T22:45:40.958Z,9.20
2019-02-24T22:48:25.028Z,8.77
2019-02-24T22:51:05.778Z,9.63
2019-02-24T22:53:46.825Z,8.97
2019-02-24T22:56:27.682Z,11.23
2019-02-24T22:59:08.362Z,8.00
2019-02-24T23:01:49.205Z,7.90
2019-02-24T23:04:30.287Z,9.93
2019-02-24T23:07:10.967Z,10.23
2019-02-24T23:09:51.320Z,11.43
2019-02-24T23:12:32.018Z,12.50
2019-02-24T23:15:12.938Z,10.47
2019-02-24T23:17:53.586Z,11.13
2019-02-24T23:20:34.112Z,11.43
2019-02-24T23:23:14.890Z,9.97
2019-02-24T23:29:14.817Z,9.90
2019-02-24T23:31:55.509Z,9.57
2019-02-24T23:34:36.329Z,10.43
2019-02-24T23:37:17.144Z,10.67
2019-02-24T23:39:58.090Z,9.53
2019-02-24T23:42:38.970Z,10.07
2019-02-24T23:48:39.214Z,9.67
2019-02-24T23:51:19.988Z,12.07
2019-02-24T23:54:00.583Z,11.20
2019-02-24T23:56:41.151Z,11.93
2019-02-24T23:59:21.773Z,10.37
